Tiempo atmosférico en la estación meteorológica de Carballiño, O, Ourense (400 m.)



Fecha
DESCASC
Temp. máxima en grados centígrados (hora)
DESCASC
Temp. mínima en grados centígrados (hora)
DESCASC
Temp. media en grados centígrados
DESCASC
Racha de viento máxima en m/sg (hora)
DESCASC
Velocidad máxima media en intervalos de 10 minutos(hora)
DESCASC
Precipitaciones diarias en mm
DESCASC
Precipitaciones de 00:00 a 06:00 en mm
DESCASC
Precipitaciones de 06:00 a 12:00 en mm
DESCASC
Precipitaciones de 12:00 a 18:00 en mm
DESCASC
Precipitaciones de 18:00 a 24:00 en mm
DESCASC
13-06-2019 17.9 (20:00) 7.4 (07:40) 12.6 5.83 (20:30) 2.22 (19:20) 0 0 0 0 0
12-06-2019 18.3 (17:00) 5.5 (06:20) 11.9 5.56 (22:00) 1.94 (20:30) 0 0 0 0 0
11-06-2019 20.2 (17:20) 9.7 (06:00) 15 8.89 (13:40) 2.78 (08:40) 0 0 0 0 0
10-06-2019 21.2 (16:40) 5.5 (07:00) 13.4 6.11 (16:30) 2.5 (20:10) 0 0 0 0 0
09-06-2019 20 (16:50) 6.1 (00:00) 13 6.11 (19:30) 2.5 (19:00) 0 0 0 0 0
08-06-2019 20 (15:10) 2.7 (00:00) 11.4 5 (17:00) 1.67 (15:20) 0 0 0 0 0
07-06-2019 16.7 (20:00) 6.6 (00:00) 11.7 8.06 (15:40) 3.89 (17:50) 9.7 5.1 3.8 0.8 0
06-06-2019 13.9 (12:40) 8.9 (00:00) 11.4 10.28 (18:20) 2.78 (18:10) 14.3 0 0.5 11.3 2.5
05-06-2019 16.5 (17:50) 6.5 (00:00) 11.5 10 (14:40) 3.89 (14:40) 0.8 0 0 0.8 0
04-06-2019 18.9 (14:00) 10.9 (00:00) 14.9 8.61 (17:40) 3.61 (18:00) 2.4 0 2.4 0 0
03-06-2019 21.8 (15:40) 14.1 (00:00) 17.9 6.67 (19:50) 2.78 (18:50) 0 0 0 0 0
02-06-2019 26.7 (16:30) 9.4 (00:00) 18.1 5.83 (15:40) 2.5 (16:10) 0 0 0 0 0
01-06-2019 32.3 (16:50) 12.1 (00:00) 22.2 7.78 (16:20) 2.5 (17:00) 0 0 0 0 0
31-05-2019 34.5 (17:10) 12.7 (00:00) 23.6 6.39 (17:50) 2.78 (17:50) 0 0 0 0 0
30-05-2019 33.3 (17:40) 10.6 (00:00) 21.9 5.28 (19:00) 1.11 (19:50) 0 0 0 0 0
29-05-2019 30.1 (17:50) 6 (00:00) 18.1 6.11 (00:50) 1.94 (00:50) 0 0 0 0 0
28-05-2019 23.7 (17:00) 6.5 (00:00) 15.1 8.61 (20:00) 3.89 (16:20) 0 0 0 0 0
27-05-2019 24.8 (16:30) 10.3 (00:00) 17.5 7.22 (18:50) 2.5 (17:40) 0 0 0 0 0
26-05-2019 28.2 (17:50) 7.2 (00:00) 17.7 7.78 (22:50) 2.5 (17:10) 0 0 0 0 0
25-05-2019 25.8 (17:10) 7.1 (00:00) 16.4 8.06 (15:10) 3.33 (17:40) 0 0 0 0 0
24-05-2019 21.5 (15:50) 5.2 (00:00) 13.3 9.17 (15:20) 3.33 (15:20) 0 0 0 0 0
23-05-2019 22.7 (18:20) 8.7 (00:00) 15.7 7.78 (20:10) 2.5 (18:20) 0 0 0 0 0
22-05-2019 26.9 (16:00) 7.4 (00:00) 17.1 7.22 (18:20) 3.06 (20:20) 0 0 0 0 0
21-05-2019 25.6 (17:50) 8.7 (06:30) 17.2 6.11 (21:00) 2.78 (21:00) 0 0 0 0 0
20-05-2019 18 (16:30) 4 (07:40) 11 3.06 (20:20) 0.83 (20:20) 0 0 0 0 0
19-05-2019 19.6 (18:20) 2 (00:00) 10.8 6.11 (17:10) 2.22 (17:40) 0 0 0 0 0
18-05-2019 15.8 (19:10) 3.3 (00:00) 9.6 7.78 (18:30) 3.61 (18:50) 0.5 0 0.1 0.4 0
17-05-2019 17.4 (18:30) 8.1 (00:00) 12.8 12.22 (17:30) 4.17 (15:00) 0 0 0 0 0

Gráficas

Temp. máximas Temp. mínimas Temp. medias Precipitaciones Rachas de viento máximas Velocidades máximas media en intervalos de 10 minutos

Datos horarios

Fecha y hora oficial Temperatura (ºC) Velocidad del viento (km/h) Dirección del viento Racha (km/h) Dirección de racha Precipitación (mm) Presión (hPa) Tendencia (hPa) Humedad (%)
2019-06-15 23:00:00 13.5 0 Calma 8 Noroeste 0 -- -- 69
2019-06-15 22:00:00 16 2 Noroeste 10 Norte 0 -- -- 60
2019-06-15 21:00:00 17.5 3 Norte 17 Oeste 0 -- -- 59
2019-06-15 20:00:00 18.4 3 Noroeste 15 Oeste 0 -- -- 57
2019-06-15 19:00:00 18.5 4 Noroeste 19 Noroeste 0 -- -- 55
2019-06-15 18:00:00 17.9 0 Calma 18 Oeste 0 -- -- 54
2019-06-15 17:00:00 17.9 6 Oeste 19 Noroeste 0 -- -- 56
2019-06-15 16:00:00 17 5 Noroeste 19 Noroeste 0 -- -- 60
2019-06-15 15:00:00 16.4 0 Calma 13 Noroeste 0 -- -- 62
2019-06-15 14:00:00 16 2 Oeste 10 Oeste 0 -- -- 62
2019-06-15 13:00:00 16.1 0 Calma 6 Sudeste 0 -- -- 61
2019-06-15 12:00:00 15.4 0 Calma 8 Noroeste 0 -- -- 65
2019-06-15 11:00:00 14.8 0 Calma 8 Noroeste 0 -- -- 69
2019-06-15 10:00:00 12.8 0 Calma 3 Este 0 -- -- 93
2019-06-15 09:00:00 10.5 0 Calma -- -- 0 -- -- 98
2019-06-15 08:00:00 9.2 0 Calma -- -- 0 -- -- 97
2019-06-15 07:00:00 8.8 0 Calma -- -- 0.1 -- -- 95
2019-06-15 06:00:00 9.7 0 Calma -- -- 0 -- -- 95
2019-06-15 05:00:00 10.4 0 Calma -- -- 0 -- -- 94
2019-06-15 04:00:00 11.3 0 Calma 3 Nordeste 0 -- -- 94
2019-06-15 03:00:00 11.8 0 Calma -- -- 0.6 -- -- 90
2019-06-15 02:00:00 12.4 0 Calma -- -- 0 -- -- 84
2019-06-15 01:00:00 12.6 0 Calma -- -- 0 -- -- 80
2019-06-15 00:00:00 12.9 0 Calma 6 Noroeste 0 -- -- 77
2019-06-14 23:00:00 13.4 0 Calma 14 Noroeste 0 -- -- 71
2019-06-14 22:00:00 14.1 5 Noroeste 20 Noroeste 0 -- -- 65
2019-06-14 21:00:00 14.7 8 Oeste 26 Oeste 0 -- -- 62
2019-06-14 20:00:00 17.5 11 Noroeste 29 Noroeste 0 -- -- 51
2019-06-14 19:00:00 18 9 Oeste 26 Sudoeste 0 -- -- 51
2019-06-14 18:00:00 17 9 Oeste 23 Oeste 0 -- -- 55
2019-06-14 17:00:00 16.9 0 Calma 20 Oeste 0 -- -- 53
2019-06-14 16:00:00 19.3 3 Oeste 16 Oeste 0 -- -- 51
2019-06-14 15:00:00 16.8 5 Oeste 16 Oeste 0 -- -- 54
2019-06-14 14:00:00 16.6 4 Oeste 16 Oeste 0 -- -- 55
2019-06-14 13:00:00 15.8 4 Oeste 21 Oeste 0 -- -- 60
2019-06-14 12:00:00 17.1 0 Calma 9 Sur 0 -- -- 59
2019-06-14 11:00:00 14.8 0 Calma 9 Sur 0 -- -- 70
2019-06-14 10:00:00 11.5 0 Calma 4 Sur 0 -- -- 85
2019-06-14 09:00:00 7 0 Calma -- -- 0 -- -- 97
2019-06-14 08:00:00 5.2 0 Calma -- -- 0 -- -- 96
2019-06-14 07:00:00 5.2 0 Calma 3 Nordeste 0 -- -- 95
2019-06-14 06:00:00 6.1 0 Calma 2 Norte 0 -- -- 95
2019-06-14 05:00:00 7 0 Calma -- -- 0 -- -- 94
2019-06-14 04:00:00 8.3 0 Calma -- -- 0 -- -- 94
2019-06-14 03:00:00 8.8 0 Calma -- -- 0 -- -- 94
2019-06-14 02:00:00 8.6 0 Calma -- -- 0 -- -- 92
2019-06-14 01:00:00 9.4 0 Calma 0 Calma 0 -- -- 88
2019-06-14 00:00:00 11.1 0 Calma 11 Nordeste 0 -- -- 81
2019-06-13 23:00:00 12.1 2 Nordeste 10 Norte 0 -- -- 74
2019-06-13 22:00:00 14.6 0 Calma 16 Norte 0 -- -- 65
2019-06-13 21:00:00 16.6 3 Noroeste 21 Noroeste 0 -- -- 60
2019-06-13 20:00:00 17.8 5 Noroeste 20 Oeste 0 -- -- 55
2019-06-13 19:00:00 16.8 6 Oeste 15 Oeste 0 -- -- 59
2019-06-13 18:00:00 15.8 4 Noroeste 16 Oeste 0 -- -- 60
2019-06-13 17:00:00 17 4 Oeste 13 Oeste 0 -- -- 54
2019-06-13 16:00:00 16.4 0 Calma 9 Noroeste 0 -- -- 55
2019-06-13 15:00:00 15.8 0 Calma 8 Noroeste 0 -- -- 57
2019-06-13 14:00:00 16 2 Oeste 10 Oeste 0 -- -- 55
2019-06-13 13:00:00 14.6 0 Calma 6 Este 0 -- -- 64
2019-06-13 12:00:00 15.5 0 Calma 13 Nordeste 0 -- -- 60
2019-06-13 11:00:00 13.5 0 Calma 10 Sudeste 0 -- -- 75
2019-06-13 10:00:00 11.7 0 Calma 8 Sudeste 0 -- -- 84
2019-06-13 09:00:00 9.5 0 Calma -- -- 0 -- -- 96
2019-06-13 08:00:00 7.6 0 Calma 0 Calma 0 -- -- 95
2019-06-13 07:00:00 7.8 0 Calma -- -- 0 -- -- 94
2019-06-13 06:00:00 8.4 0 Calma 3 Nordeste 0 -- -- 93
2019-06-13 05:00:00 8.6 0 Calma 2 Noroeste 0 -- -- 93
2019-06-13 04:00:00 9 0 Calma 7 Oeste 0 -- -- 93
2019-06-13 03:00:00 9.4 0 Calma 4 Oeste 0 -- -- 91
2019-06-13 02:00:00 10 0 Calma 3 Sudoeste 0 -- -- 88
2019-06-13 01:00:00 10.3 0 Calma 8 Noroeste 0 -- -- 87
2019-06-13 00:00:00 10.3 0 Calma 14 Nordeste 0 -- -- 84
2019-06-12 23:00:00 11.3 0 Calma 16 Norte 0 -- -- 79
2019-06-12 22:00:00 12.4 4 Noroeste 20 Norte 0 -- -- 73
2019-06-12 21:00:00 13.8 3 Noroeste 19 Norte 0 -- -- 64
2019-06-12 20:00:00 15.6 3 Norte 15 Noroeste 0 -- -- 57
2019-06-12 19:00:00 17 2 Norte 9 Oeste 0 -- -- 52
2019-06-12 18:00:00 16.9 6 Oeste 14 Oeste 0 -- -- 49
2019-06-12 17:00:00 18.1 2 Norte 11 Oeste 0 -- -- 48
2019-06-12 16:00:00 16.2 3 Norte 17 Norte 0 -- -- 55
2019-06-12 15:00:00 15.5 5 Noroeste 14 Norte 0 -- -- 52
2019-06-12 14:00:00 17.2 2 Norte 15 Nordeste 0 -- -- 49
2019-06-12 13:00:00 16.2 3 Nordeste 14 Norte 0 -- -- 52
2019-06-12 12:00:00 16.2 3 Nordeste 12 Nordeste 0 -- -- 50
2019-06-12 11:00:00 15.1 2 Nordeste 12 Este 0 -- -- 61
2019-06-12 10:00:00 12.3 0 Calma 5 Sudoeste 0 -- -- 80
2019-06-12 09:00:00 8.4 0 Calma 0 Calma 0 -- -- 96
2019-06-12 08:00:00 6.5 0 Calma 0 Calma 0 -- -- 97
2019-06-12 07:00:00 5.8 0 Calma -- -- 0 -- -- 95
2019-06-12 06:00:00 5.8 0 Calma 0 Calma 0 -- -- 93
2019-06-12 05:00:00 6.8 0 Calma 4 Nordeste 0 -- -- 91
2019-06-12 04:00:00 7.9 0 Calma 12 Nordeste 0 -- -- 91
2019-06-12 03:00:00 9.4 4 Nordeste 13 Nordeste 0 -- -- 91
2019-06-12 02:00:00 8.5 0 Calma 4 Noroeste 0 -- -- 91
2019-06-12 01:00:00 9 0 Calma 8 Nordeste 0 -- -- 86
2019-06-12 00:00:00 10.4 0 Calma 12 Nordeste 0 -- -- 79
2019-06-11 23:00:00 11.6 0 Calma 18 Noroeste 0 -- -- 71
2019-06-11 22:00:00 13.7 4 Norte 23 Norte 0 -- -- 59
2019-06-11 21:00:00 16 8 Norte 27 Norte 0 -- -- 51
2019-06-11 20:00:00 18.5 9 Noroeste 24 Noroeste 0 -- -- 48
2019-06-11 19:00:00 19 8 Norte 24 Norte 0 -- -- 48
2019-06-11 18:00:00 19.6 7 Norte 25 Norte 0 -- -- 45
2019-06-11 17:00:00 19.2 6 Norte 27 Nordeste 0 -- -- 47
2019-06-11 16:00:00 18.2 7 Norte 28 Norte 0 -- -- 47
2019-06-11 15:00:00 18.5 7 Norte 26 Este 0 -- -- 46
2019-06-11 14:00:00 17.3 8 Norte 32 Nordeste 0 -- -- 48
2019-06-11 13:00:00 17.4 9 Nordeste 27 Nordeste 0 -- -- 45
2019-06-11 12:00:00 16.1 7 Nordeste 23 Nordeste 0 -- -- 50
2019-06-11 11:00:00 13.8 9 Norte 25 Nordeste 0 -- -- 59
2019-06-11 10:00:00 13.5 6 Norte 23 Norte 0 -- -- 66
2019-06-11 09:00:00 11 6 Nordeste 27 Norte 0 -- -- 78
2019-06-11 08:00:00 9.8 0 Calma 14 Nordeste 0 -- -- 86
2019-06-11 07:00:00 10 3 Norte 16 Oeste 0 -- -- 90
2019-06-11 06:00:00 9.7 0 Calma 3 Norte 0 -- -- 86
2019-06-11 05:00:00 10.7 0 Calma 3 Noroeste 0 -- -- 83
2019-06-11 04:00:00 11.2 0 Calma 2 Oeste 0 -- -- 81
2019-06-11 03:00:00 11.3 0 Calma 10 Norte 0 -- -- 78
2019-06-11 02:00:00 11.7 3 Norte 11 Noroeste 0 -- -- 72
2019-06-11 01:00:00 12 4 Norte 15 Norte 0 -- -- 68
2019-06-11 00:00:00 12.6 4 Norte 18 Norte 0 -- -- 71
2019-06-10 23:00:00 13.4 5 Norte 16 Norte 0 -- -- 71
2019-06-10 22:00:00 14.6 5 Noroeste 21 Oeste 0 -- -- 67
2019-06-10 21:00:00 15.8 5 Noroeste 21 Noroeste 0 -- -- 62
2019-06-10 20:00:00 17.3 8 Noroeste 21 Noroeste 0 -- -- 54
2019-06-10 19:00:00 18.2 4 Noroeste 15 Noroeste 0 -- -- 48
2019-06-10 18:00:00 19 5 Noroeste 17 Noroeste 0 -- -- 45
2019-06-10 17:00:00 20.9 4 Norte 22 Nordeste 0 -- -- 42
2019-06-10 16:00:00 20.3 4 Nordeste 19 Nordeste 0 -- -- 42
2019-06-10 15:00:00 18.9 5 Nordeste 20 Este 0 -- -- 44
2019-06-10 14:00:00 18.8 5 Noroeste 14 Noroeste 0 -- -- 46
2019-06-10 13:00:00 16.9 0 Calma 9 Este 0 -- -- 56
2019-06-10 12:00:00 16 0 Calma 9 Este 0 -- -- 60
2019-06-10 11:00:00 15.3 0 Calma 7 Este 0 -- -- 64
2019-06-10 10:00:00 12.3 0 Calma 4 Sudeste 0 -- -- 83
2019-06-10 09:00:00 9.1 0 Calma 2 Sur 0 -- -- 98
2019-06-10 08:00:00 7 0 Calma 4 Nordeste 0 -- -- 98
2019-06-10 07:00:00 5.5 0 Calma 0 Calma 0 -- -- 95
2019-06-10 06:00:00 6.3 0 Calma 4 Nordeste 0 -- -- 95
2019-06-10 05:00:00 6.9 0 Calma 3 Nordeste 0 -- -- 94
2019-06-10 04:00:00 7.7 0 Calma -- -- 0 -- -- 91
2019-06-10 03:00:00 8.8 0 Calma 4 Oeste 0 -- -- 89
2019-06-10 02:00:00 10.2 0 Calma 10 Nordeste 0 -- -- 87
2019-06-10 01:00:00 11.5 0 Calma 13 Norte 0 -- -- 84
2019-06-10 00:00:00 12.2 0 Calma 10 Nordeste 0 -- -- 80
2019-06-09 23:00:00 12.9 3 Nordeste 12 Noroeste 0 -- -- 76
2019-06-09 22:00:00 15.1 0 Calma 11 Norte 0 -- -- 66
2019-06-09 21:00:00 16.7 5 Noroeste 17 Oeste 0 -- -- 63
2019-06-09 20:00:00 16.7 3 Noroeste 22 Noroeste 0 -- -- 60
2019-06-09 19:00:00 17.2 9 Noroeste 21 Norte 0 -- -- 56
2019-06-09 18:00:00 17.7 8 Noroeste 19 Oeste 0 -- -- 54
2019-06-09 17:00:00 19.1 5 Oeste 17 Nordeste 0 -- -- 50
2019-06-09 16:00:00 18.8 5 Oeste 18 Oeste 0 -- -- 52
2019-06-09 15:00:00 18.4 3 Oeste 11 Oeste 0 -- -- 58
2019-06-09 14:00:00 17.3 0 Calma 8 Sudoeste 0 -- -- 60
2019-06-09 13:00:00 16.4 0 Calma 12 Sudeste 0 -- -- 62
2019-06-09 12:00:00 15.8 3 Sudeste 11 Este 0 -- -- 68
2019-06-09 11:00:00 14 0 Calma 12 Este 0 -- -- 78
2019-06-09 10:00:00 12.3 0 Calma 5 Sudeste 0 -- -- 86
2019-06-09 09:00:00 8.1 0 Calma 0 Calma 0 -- -- 97
2019-06-09 08:00:00 6.4 0 Calma 0 Calma 0 -- -- 96
2019-06-09 07:00:00 6.3 0 Calma -- -- 0 -- -- 94
2019-06-09 06:00:00 7.2 0 Calma -- -- 0 -- -- 93
2019-06-09 05:00:00 8.4 0 Calma 0 Calma 0 -- -- 93
2019-06-09 04:00:00 9 0 Calma 6 Oeste 0 -- -- 92
2019-06-09 03:00:00 9.2 0 Calma 8 Noroeste 0 -- -- 89
2019-06-09 02:00:00 10.5 0 Calma 5 Oeste 0 -- -- 84
2019-06-09 01:00:00 11.8 0 Calma 14 Nordeste 0 -- -- 80
2019-06-09 00:00:00 12.3 0 Calma 11 Nordeste 0 -- -- 80
2019-06-08 23:00:00 13 0 Calma 11 Nordeste 0 -- -- 78
2019-06-08 22:00:00 14.2 0 Calma 16 Norte 0 -- -- 71
2019-06-08 21:00:00 15.6 4 Norte 18 Norte 0 -- -- 62
2019-06-08 20:00:00 18.5 5 Norte 18 Norte 0 -- -- 56
2019-06-08 19:00:00 18.6 2 Noroeste 18 Norte 0 -- -- 52
2019-06-08 18:00:00 17 5 Norte 17 Noroeste 0 -- -- 58
2019-06-08 17:00:00 17.3 4 Noroeste 18 Norte 0 -- -- 47
2019-06-08 16:00:00 18.9 2 Oeste 15 Noroeste 0 -- -- 39
2019-06-08 15:00:00 19.2 0 Calma 11 Noroeste 0 -- -- 39
2019-06-08 14:00:00 18 0 Calma 9 Oeste 0 -- -- 49
2019-06-08 13:00:00 16.5 3 Oeste 11 Sudeste 0 -- -- 58
2019-06-08 12:00:00 14.9 0 Calma 8 Norte 0 -- -- 67
2019-06-08 11:00:00 11.9 0 Calma 5 Sudoeste 0 -- -- 79
2019-06-08 10:00:00 9.5 0 Calma 4 Oeste 0 -- -- 97
2019-06-08 09:00:00 6.1 0 Calma -- -- 0 -- -- 99
2019-06-08 08:00:00 3.6 0 Calma -- -- 0 -- -- 98
2019-06-08 07:00:00 3 0 Calma -- -- 0 -- -- 97
2019-06-08 06:00:00 3 0 Calma 5 Nordeste 0 -- -- 96
2019-06-08 05:00:00 3.5 0 Calma -- -- 0 -- -- 95
2019-06-08 04:00:00 4.1 0 Calma -- -- 0 -- -- 94
2019-06-08 03:00:00 5 0 Calma 0 Calma 0 -- -- 93
2019-06-08 02:00:00 6.1 0 Calma 5 Nordeste 0 -- -- 91
2019-06-08 01:00:00 7.1 0 Calma -- -- 0 -- -- 88
2019-06-08 00:00:00 8.7 0 Calma 0 Calma 0 -- -- 83
2019-06-07 23:00:00 10.2 0 Calma 9 Noroeste 0 -- -- 77
2019-06-07 22:00:00 13.1 0 Calma 13 Oeste 0 -- -- 61
2019-06-07 21:00:00 15.1 0 Calma 13 Oeste 0 -- -- 55
2019-06-07 20:00:00 16.4 6 Noroeste 20 Noroeste 0 -- -- 52
2019-06-07 19:00:00 15.7 10 Oeste 25 Noroeste 0 -- -- 54
2019-06-07 18:00:00 16.5 10 Noroeste 28 Noroeste 0 -- -- 55
2019-06-07 17:00:00 14.7 10 Oeste 28 Oeste 0 -- -- 57
2019-06-07 16:00:00 14.4 9 Noroeste 29 Oeste 0.1 -- -- 70
2019-06-07 15:00:00 13.5 0 Calma 21 Noroeste 0.1 -- -- 71
2019-06-07 14:00:00 13.5 0 Calma 21 Noroeste 0.4 -- -- 76
2019-06-07 13:00:00 11.8 8 Noroeste 22 Noroeste 0.2 -- -- 79
2019-06-07 12:00:00 13.9 3 Sudoeste 13 Oeste 0 -- -- 76
2019-06-07 11:00:00 12.2 0 Calma 7 Sur 0.1 -- -- 87
2019-06-07 10:00:00 9.6 0 Calma 9 Sur 0.1 -- -- 99
2019-06-07 09:00:00 8.2 0 Calma 0 Calma 1 -- -- 98
2019-06-07 08:00:00 6.8 0 Calma 5 Oeste 0 -- -- 97
2019-06-07 07:00:00 7 0 Calma 14 Nordeste 2.6 -- -- 97
2019-06-07 06:00:00 7.3 0 Calma 7 Noroeste 0.7 -- -- 97
2019-06-07 05:00:00 8.1 0 Calma 8 Noroeste 3.6 -- -- 97
2019-06-07 04:00:00 7.8 0 Calma 6 Oeste 0 -- -- 96
2019-06-07 03:00:00 8.5 0 Calma 15 Oeste 0.3 -- -- 95
2019-06-07 02:00:00 8.7 0 Calma 9 Sudoeste 0 -- -- 96
2019-06-07 01:00:00 8.8 0 Calma 9 Oeste 0.5 -- -- 96
2019-06-07 00:00:00 8.9 0 Calma 9 Sur 0.4 -- -- 95
2019-06-06 23:00:00 9.2 0 Calma 19 Sudoeste 0.4 -- -- 94
2019-06-06 22:00:00 10.1 0 Calma 15 Oeste 1.1 -- -- 93
2019-06-06 21:00:00 10.7 3 Oeste 24 Sudoeste 0.6 -- -- 86
2019-06-06 20:00:00 12.3 4 Oeste 27 Oeste 0 -- -- 81
2019-06-06 19:00:00 13 8 Oeste 37 Oeste 0 -- -- 75
2019-06-06 18:00:00 13.4 8 Oeste 29 Noroeste 0.1 -- -- 89
2019-06-06 17:00:00 12.2 8 Oeste 24 Sudoeste 4.5 -- -- 97
2019-06-06 16:00:00 12.3 0 Calma 17 Sudeste 4.1 -- -- 96
2019-06-06 15:00:00 12.1 3 Sudeste 17 Sur 2.3 -- -- 93
2019-06-06 14:00:00 12.7 3 Sur 20 Sur 0.3 -- -- 86
2019-06-06 13:00:00 13.4 0 Calma 18 Sur 0 -- -- 79
2019-06-06 12:00:00 13.3 2 Sur 18 Sur 0.5 -- -- 83
2019-06-06 11:00:00 12.2 2 Sudeste 12 Sudeste 0 -- -- 78
2019-06-06 10:00:00 11.4 3 Sudeste 17 Este 0 -- -- 80
2019-06-06 09:00:00 10.7 3 Este 11 Este 0 -- -- 84
2019-06-06 08:00:00 9.9 0 Calma 6 Este 0 -- -- 87
2019-06-06 07:00:00 9.8 0 Calma 6 Este 0 -- -- 87
2019-06-06 06:00:00 9.6 0 Calma 6 Este 0 -- -- 89
2019-06-06 05:00:00 9.3 0 Calma 4 Nordeste 0 -- -- 91
2019-06-06 04:00:00 9.3 0 Calma 4 Nordeste 0 -- -- 91
2019-06-06 03:00:00 9.5 0 Calma -- -- 0 -- -- 91
2019-06-06 02:00:00 9.6 0 Calma -- -- 0 -- -- 89
2019-06-06 01:00:00 9.8 0 Calma -- -- 0 -- -- 86
2019-06-06 00:00:00 10.1 0 Calma 2 Sudeste 0 -- -- 78
2019-06-05 23:00:00 10.8 0 Calma 7 Oeste 0 -- -- 71
2019-06-05 22:00:00 12.5 0 Calma 13 Noroeste 0 -- -- 62
2019-06-05 21:00:00 14 5 Oeste 17 Oeste 0 -- -- 60
2019-06-05 20:00:00 14.1 3 Oeste 25 Oeste 0 -- -- 58
2019-06-05 19:00:00 14.3 7 Oeste 24 Oeste 0 -- -- 56
2019-06-05 18:00:00 15.4 10 Oeste 31 Noroeste 0 -- -- 53
2019-06-05 17:00:00 15.2 5 Oeste 28 Noroeste 0 -- -- 57
2019-06-05 16:00:00 14.6 14 Oeste 28 Oeste 0 -- -- 58
2019-06-05 15:00:00 13.2 6 Noroeste 36 Noroeste 0.1 -- -- 75
2019-06-05 14:00:00 15.1 2 Oeste 21 Oeste 0.2 -- -- 67
2019-06-05 13:00:00 13.6 4 Noroeste 27 Oeste 0.5 -- -- 74
2019-06-05 12:00:00 14.9 7 Oeste 22 Oeste 0 -- -- 54
2019-06-05 11:00:00 13.2 5 Noroeste 21 Oeste 0 -- -- 67
2019-06-05 10:00:00 11.4 0 Calma 7 Sudoeste 0 -- -- 89
2019-06-05 09:00:00 9 0 Calma -- -- 0 -- -- 99
2019-06-05 08:00:00 7.4 0 Calma -- -- 0 -- -- 98
2019-06-05 07:00:00 6.7 0 Calma 0 Calma 0 -- -- 97
2019-06-05 06:00:00 6.8 0 Calma 5 Oeste 0 -- -- 97
2019-06-05 05:00:00 7.4 0 Calma -- -- 0 -- -- 95
2019-06-05 04:00:00 8 0 Calma -- -- 0 -- -- 95
2019-06-05 03:00:00 8.7 0 Calma -- -- 0 -- -- 94
2019-06-05 02:00:00 9.2 0 Calma 6 Oeste 0 -- -- 92
2019-06-05 01:00:00 9.8 0 Calma 3 Oeste 0 -- -- 89
2019-06-05 00:00:00 10.9 0 Calma -- -- 0 -- -- 86
2019-06-04 23:00:00 11.9 0 Calma 9 Oeste 0 -- -- 79
2019-06-04 22:00:00 12.8 0 Calma 16 Noroeste 0 -- -- 72
2019-06-04 21:00:00 15.5 3 Oeste 19 Oeste 0 -- -- 68
2019-06-04 20:00:00 15.6 5 Oeste 18 Oeste 0 -- -- 68
2019-06-04 19:00:00 14.8 4 Oeste 23 Noroeste 0 -- -- 65
2019-06-04 18:00:00 15.2 13 Oeste 31 Oeste 0 -- -- 61
2019-06-04 17:00:00 17.5 12 Oeste 29 Noroeste 0 -- -- 52
2019-06-04 16:00:00 17.9 10 Oeste 28 Noroeste 0 -- -- 56
2019-06-04 15:00:00 17.8 7 Oeste 23 Noroeste 0 -- -- 58
2019-06-04 14:00:00 18.6 6 Oeste 18 Noroeste 0 -- -- 54
2019-06-04 13:00:00 16.9 3 Oeste 17 Sudoeste 0 -- -- 64
2019-06-04 12:00:00 15.1 0 Calma 12 Sur 0 -- -- 81
2019-06-04 11:00:00 14.4 0 Calma 27 Oeste 0.1 -- -- 90
2019-06-04 10:00:00 14.3 0 Calma 12 Noroeste 1.3 -- -- 96
2019-06-04 09:00:00 13.8 0 Calma 7 Oeste 1 -- -- 93
2019-06-04 08:00:00 14.2 0 Calma 13 Sudoeste 0 -- -- 87
2019-06-04 07:00:00 14.2 0 Calma 7 Sudeste 0 -- -- 84
2019-06-04 06:00:00 14.2 0 Calma 13 Sudoeste 0 -- -- 84
2019-06-04 05:00:00 14.6 0 Calma 13 Sudeste 0 -- -- 83
2019-06-04 04:00:00 13.4 0 Calma 4 Sudeste 0 -- -- 85
2019-06-04 03:00:00 14 0 Calma 8 Sudeste 0 -- -- 81
2019-06-04 02:00:00 14.2 0 Calma 8 Sudoeste 0 -- -- 80
2019-06-04 01:00:00 14.3 0 Calma 5 Norte 0 -- -- 80
2019-06-04 00:00:00 14.6 0 Calma 8 Oeste 0 -- -- 78
2019-06-03 23:00:00 15.3 0 Calma 13 Oeste 0 -- -- 77
2019-06-03 22:00:00 16.2 0 Calma 17 Noroeste 0 -- -- 77
2019-06-03 21:00:00 17.9 6 Oeste 22 Noroeste 0 -- -- 73
2019-06-03 20:00:00 19.1 7 Oeste 24 Noroeste 0 -- -- 71
2019-06-03 19:00:00 20 8 Oeste 22 Oeste 0 -- -- 70
2019-06-03 18:00:00 19.6 0 Calma 14 Noroeste 0 -- -- 73
2019-06-03 17:00:00 20.9 0 Calma 17 Oeste 0 -- -- 70
2019-06-03 16:00:00 20.4 4 Oeste 18 Oeste 0 -- -- 70
2019-06-03 15:00:00 20.4 6 Oeste 17 Noroeste 0 -- -- 69
2019-06-03 14:00:00 21.2 0 Calma 12 Oeste 0 -- -- 72
2019-06-03 13:00:00 20.4 0 Calma 12 Oeste 0 -- -- 76
2019-06-03 12:00:00 19.7 0 Calma 6 Noroeste 0 -- -- 76
2019-06-03 11:00:00 18 0 Calma 5 Oeste 0 -- -- 79
2019-06-03 10:00:00 16.6 0 Calma 0 Calma 0 -- -- 83
2019-06-03 09:00:00 15.8 0 Calma -- -- 0 -- -- 86
2019-06-03 08:00:00 15.1 0 Calma -- -- 0 -- -- 87
2019-06-03 07:00:00 14.6 0 Calma -- -- 0 -- -- 85
2019-06-03 06:00:00 14.5 0 Calma 2 Norte 0 -- -- 84
2019-06-03 05:00:00 14.4 0 Calma -- -- 0 -- -- 83
2019-06-03 04:00:00 14.1 0 Calma -- -- 0 -- -- 81
2019-06-03 03:00:00 14.5 0 Calma -- -- 0 -- -- 77
2019-06-03 02:00:00 15.8 0 Calma 2 Oeste 0 -- -- 68
2019-06-03 01:00:00 16.9 0 Calma 9 Oeste 0 -- -- 60
2019-06-03 00:00:00 18.2 0 Calma 8 Oeste 0 -- -- 56
2019-06-02 23:00:00 19 0 Calma 9 Oeste 0 -- -- 53
2019-06-02 22:00:00 20.1 0 Calma 5 Noroeste 0 -- -- 52
2019-06-02 21:00:00 21.9 0 Calma 8 Noroeste 0 -- -- 47
2019-06-02 20:00:00 23.5 0 Calma 11 Oeste 0 -- -- 44
2019-06-02 19:00:00 25 2 Oeste 17 Oeste 0 -- -- 39
2019-06-02 18:00:00 26 8 Noroeste 16 Noroeste 0 -- -- 39
2019-06-02 17:00:00 26.2 5 Oeste 19 Oeste 0 -- -- 39
2019-06-02 16:00:00 26.3 6 Noroeste 21 Oeste 0 -- -- 38
2019-06-02 15:00:00 25.2 0 Calma 8 Noroeste 0 -- -- 47
2019-06-02 14:00:00 25.1 0 Calma 8 Sudeste 0 -- -- 50
2019-06-02 13:00:00 23.2 0 Calma 5 Nordeste 0 -- -- 54
2019-06-02 12:00:00 21.3 0 Calma -- -- 0 -- -- 63
2019-06-02 11:00:00 20.2 0 Calma 3 Sudeste 0 -- -- 64
2019-06-02 10:00:00 15.4 0 Calma 0 Calma 0 -- -- 77
2019-06-02 09:00:00 12.2 0 Calma 0 Calma 0 -- -- 85
2019-06-02 08:00:00 10.4 0 Calma 5 Nordeste 0 -- -- 85
2019-06-02 07:00:00 9.4 0 Calma 0 Calma 0 -- -- 84
2019-06-02 06:00:00 10 0 Calma 8 Nordeste 0 -- -- 80
2019-06-02 05:00:00 10.7 0 Calma 4 Nordeste 0 -- -- 78
2019-06-02 04:00:00 11.5 0 Calma 6 Nordeste 0 -- -- 76
2019-06-02 03:00:00 12.5 0 Calma 5 Nordeste 0 -- -- 73
2019-06-02 02:00:00 13.8 0 Calma -- -- 0 -- -- 71
2019-06-02 01:00:00 15.2 0 Calma 5 Nordeste 0 -- -- 66
2019-06-02 00:00:00 16.9 0 Calma 0 Calma 0 -- -- 62
2019-06-01 23:00:00 20.4 0 Calma 5 Oeste 0 -- -- 46
2019-06-01 22:00:00 24 0 Calma 3 Noroeste 0 -- -- 39
2019-06-01 21:00:00 28.8 0 Calma 14 Noroeste 0 -- -- 32
2019-06-01 20:00:00 29.4 6 Noroeste 18 Oeste 0 -- -- 31
2019-06-01 19:00:00 30.9 7 Oeste 18 Noroeste 0 -- -- 30
2019-06-01 18:00:00 31.7 6 Oeste 22 Noroeste 0 -- -- 29
2019-06-01 17:00:00 31.7 9 Oeste 28 Noroeste 0 -- -- 29
2019-06-01 16:00:00 31.5 4 Oeste 22 Noroeste 0 -- -- 30
2019-06-01 15:00:00 30.9 4 Oeste 15 Oeste 0 -- -- 30
2019-06-01 14:00:00 30.1 0 Calma 13 Noroeste 0 -- -- 40
2019-06-01 13:00:00 27.8 0 Calma 5 Oeste 0 -- -- 46
2019-06-01 12:00:00 25.9 0 Calma 0 Calma 0 -- -- 53
2019-06-01 11:00:00 24.3 0 Calma 0 Calma 0 -- -- 57
2019-06-01 10:00:00 19.1 0 Calma -- -- 0 -- -- 77
2019-06-01 09:00:00 14.2 0 Calma 0 Calma 0 -- -- 93
2019-06-01 08:00:00 12.4 0 Calma 4 Nordeste 0 -- -- 93
2019-06-01 07:00:00 12.3 0 Calma -- -- 0 -- -- 90
2019-06-01 06:00:00 13.1 0 Calma 0 Calma 0 -- -- 88
2019-06-01 05:00:00 13.9 0 Calma 6 Nordeste 0 -- -- 87
2019-06-01 04:00:00 14.7 0 Calma 0 Calma 0 -- -- 84
2019-06-01 03:00:00 15.3 0 Calma -- -- 0 -- -- 82
2019-06-01 02:00:00 16.4 0 Calma -- -- 0 -- -- 77
2019-06-01 01:00:00 18.1 0 Calma -- -- 0 -- -- 70
2019-06-01 00:00:00 21.1 0 Calma 0 Calma 0 -- -- 56
2019-05-31 23:00:00 23.4 0 Calma 4 Nordeste 0 -- -- 49
2019-05-31 22:00:00 26.3 0 Calma 3 Norte 0 -- -- 43
2019-05-31 21:00:00 30 0 Calma 17 Noroeste 0 -- -- 38
2019-05-31 20:00:00 31 5 Noroeste 21 Oeste 0 -- -- 36
2019-05-31 19:00:00 32 9 Noroeste 19 Oeste 0 -- -- 35
2019-05-31 18:00:00 32.6 8 Noroeste 23 Noroeste 0 -- -- 34
2019-05-31 17:00:00 34.3 0 Calma 15 Oeste 0 -- -- 29
2019-05-31 16:00:00 33.8 0 Calma 8 Noroeste 0 -- -- 29
2019-05-31 15:00:00 32.9 0 Calma 13 Este 0 -- -- 31
2019-05-31 14:00:00 31.2 0 Calma 14 Este 0 -- -- 36
2019-05-31 13:00:00 30 0 Calma 11 Sudeste 0 -- -- 38
2019-05-31 12:00:00 27.9 0 Calma 8 Este 0 -- -- 42
2019-05-31 11:00:00 26.1 0 Calma 9 Este 0 -- -- 47
2019-05-31 10:00:00 20.5 0 Calma 0 Calma 0 -- -- 75
2019-05-31 09:00:00 15.2 0 Calma 6 Norte 0 -- -- 90
2019-05-31 08:00:00 13 0 Calma 0 Calma 0 -- -- 91
2019-05-31 07:00:00 13 0 Calma 6 Nordeste 0 -- -- 89
2019-05-31 06:00:00 13.3 0 Calma -- -- 0 -- -- 86
2019-05-31 05:00:00 14.6 0 Calma -- -- 0 -- -- 81
2019-05-31 04:00:00 15.5 0 Calma 3 Nordeste 0 -- -- 77
2019-05-31 03:00:00 16.1 0 Calma -- -- 0 -- -- 73
2019-05-31 02:00:00 17.4 0 Calma 4 Oeste 0 -- -- 68
2019-05-31 01:00:00 18.8 0 Calma 5 Sudoeste 0 -- -- 62
2019-05-31 00:00:00 21.6 0 Calma 6 Nordeste 0 -- -- 49
2019-05-30 23:00:00 24.2 0 Calma 15 Norte 0 -- -- 42
2019-05-30 22:00:00 27 0 Calma 15 Nordeste 0 -- -- 41
2019-05-30 21:00:00 30.6 3 Norte 17 Noroeste 0 -- -- 37
2019-05-30 20:00:00 32.6 0 Calma 19 Noroeste 0 -- -- 34
2019-05-30 19:00:00 32.6 4 Nordeste 19 Nordeste 0 -- -- 33
2019-05-30 18:00:00 32.6 2 Este 15 Sudeste 0 -- -- 33
2019-05-30 17:00:00 32.7 2 Noroeste 10 Noroeste 0 -- -- 33
2019-05-30 16:00:00 31.1 0 Calma 8 Oeste 0 -- -- 35
2019-05-30 15:00:00 29.5 0 Calma 8 Sudoeste 0 -- -- 38
2019-05-30 14:00:00 28.3 0 Calma 8 Sur 0 -- -- 40
2019-05-30 13:00:00 26.1 0 Calma 13 Sudeste 0 -- -- 42
2019-05-30 12:00:00 24.2 0 Calma 9 Sudeste 0 -- -- 44
2019-05-30 11:00:00 23.5 0 Calma 8 Sudeste 0 -- -- 47
2019-05-30 10:00:00 20.2 0 Calma 7 Este 0 -- -- 61
2019-05-30 09:00:00 13.4 0 Calma 0 Calma 0 -- -- 93
2019-05-30 08:00:00 11.1 0 Calma 5 Nordeste 0 -- -- 94
2019-05-30 07:00:00 10.7 0 Calma 4 Nordeste 0 -- -- 93
2019-05-30 06:00:00 10.8 0 Calma 0 Calma 0 -- -- 90
2019-05-30 05:00:00 11.6 0 Calma 0 Calma 0 -- -- 89
2019-05-30 04:00:00 12.3 0 Calma -- -- 0 -- -- 88
2019-05-30 03:00:00 13 0 Calma 2 Sudeste 0 -- -- 85
2019-05-30 02:00:00 13.8 0 Calma -- -- 0 -- -- 82
2019-05-30 01:00:00 15.8 0 Calma 0 Calma 0 -- -- 74
2019-05-30 00:00:00 18.1 0 Calma 0 Calma 0 -- -- 63
2019-05-29 23:00:00 20.4 0 Calma 0 Calma 0 -- -- 55
2019-05-29 22:00:00 24.2 0 Calma 11 Nordeste 0 -- -- 44
2019-05-29 21:00:00 27.3 0 Calma 18 Nordeste 0 -- -- 38
2019-05-29 20:00:00 28.7 3 Norte 17 Nordeste 0 -- -- 36
2019-05-29 19:00:00 28.8 4 Nordeste 19 Nordeste 0 -- -- 34
2019-05-29 18:00:00 29.2 3 Nordeste 21 Este 0 -- -- 34
2019-05-29 17:00:00 29.4 5 Nordeste 18 Este 0 -- -- 35
2019-05-29 16:00:00 28.1 3 Nordeste 17 Este 0 -- -- 38
2019-05-29 15:00:00 26.5 0 Calma 9 Sudeste 0 -- -- 43
2019-05-29 14:00:00 24.2 0 Calma 11 Este 0 -- -- 46
2019-05-29 13:00:00 21.9 0 Calma 10 Sudeste 0 -- -- 49
2019-05-29 12:00:00 19.2 0 Calma 8 Sudeste 0 -- -- 52
2019-05-29 11:00:00 16.8 0 Calma 6 Sudeste 0 -- -- 60
2019-05-29 10:00:00 13.5 0 Calma 0 Calma 0 -- -- 77
2019-05-29 09:00:00 8.8 0 Calma -- -- 0 -- -- 96
2019-05-29 08:00:00 6.3 0 Calma -- -- 0 -- -- 95
2019-05-29 07:00:00 6.2 0 Calma -- -- 0 -- -- 94
2019-05-29 06:00:00 6.7 0 Calma 0 Calma 0 -- -- 92
2019-05-29 05:00:00 7.4 0 Calma -- -- 0 -- -- 90
2019-05-29 04:00:00 8.3 0 Calma -- -- 0 -- -- 86
2019-05-29 03:00:00 9.8 0 Calma 0 Calma 0 -- -- 79
2019-05-29 02:00:00 11.7 0 Calma 13 Este 0 -- -- 69
2019-05-29 01:00:00 13 5 Nordeste 22 Nordeste 0 -- -- 65
2019-05-29 00:00:00 13.6 2 Nordeste 19 Nordeste 0 -- -- 62
2019-05-28 23:00:00 14.6 0 Calma 22 Nordeste 0 -- -- 56
2019-05-28 22:00:00 16.6 6 Norte 25 Nordeste 0 -- -- 47
2019-05-28 21:00:00 19.1 8 Nordeste 30 Nordeste 0 -- -- 42
2019-05-28 20:00:00 20.5 11 Nordeste 31 Nordeste 0 -- -- 41
2019-05-28 19:00:00 22.4 7 Nordeste 30 Nordeste 0 -- -- 41
2019-05-28 18:00:00 23.3 8 Norte 30 Norte 0 -- -- 39
2019-05-28 17:00:00 23.7 8 Nordeste 28 Nordeste 0 -- -- 39
2019-05-28 16:00:00 22.7 10 Nordeste 28 Nordeste 0 -- -- 39
2019-05-28 15:00:00 22.3 8 Nordeste 23 Nordeste 0 -- -- 42
2019-05-28 14:00:00 21.4 6 Nordeste 23 Nordeste 0 -- -- 44
2019-05-28 13:00:00 19.8 10 Nordeste 24 Nordeste 0 -- -- 46
2019-05-28 12:00:00 18.5 10 Nordeste 24 Nordeste 0 -- -- 49
2019-05-28 11:00:00 17.1 3 Norte 14 Nordeste 0 -- -- 57
2019-05-28 10:00:00 15 3 Nordeste 15 Norte 0 -- -- 66
2019-05-28 09:00:00 10.7 3 Nordeste 11 Nordeste 0 -- -- 90
2019-05-28 08:00:00 7.7 0 Calma 12 Este 0 -- -- 95
2019-05-28 07:00:00 6.6 0 Calma 5 Nordeste 0 -- -- 94
2019-05-28 06:00:00 7.1 0 Calma 5 Sudoeste 0 -- -- 92
2019-05-28 05:00:00 7.9 0 Calma 10 Nordeste 0 -- -- 89
2019-05-28 04:00:00 8.4 0 Calma 7 Norte 0 -- -- 87
2019-05-28 03:00:00 9.6 0 Calma 12 Este 0 -- -- 82
2019-05-28 02:00:00 10.3 0 Calma 9 Oeste 0 -- -- 79
2019-05-28 01:00:00 11.2 2 Noroeste 19 Nordeste 0 -- -- 76
2019-05-28 00:00:00 12.7 8 Nordeste 24 Nordeste 0 -- -- 74
2019-05-27 23:00:00 14.4 5 Noroeste 20 Noroeste 0 -- -- 75
2019-05-27 22:00:00 16.6 3 Noroeste 22 Noroeste 0 -- -- 65
2019-05-27 21:00:00 19.9 5 Norte 23 Noroeste 0 -- -- 54
2019-05-27 20:00:00 22.3 5 Noroeste 20 Noroeste 0 -- -- 51
2019-05-27 19:00:00 22.9 8 Noroeste 26 Oeste 0 -- -- 49
2019-05-27 18:00:00 23.9 8 Norte 24 Noroeste 0 -- -- 47
2019-05-27 17:00:00 24.2 6 Noroeste 22 Norte 0 -- -- 46
2019-05-27 16:00:00 24.3 4 Norte 21 Norte 0 -- -- 44
2019-05-27 15:00:00 23.8 4 Nordeste 18 Norte 0 -- -- 46
2019-05-27 14:00:00 22.9 5 Nordeste 19 Nordeste 0 -- -- 48
2019-05-27 13:00:00 21.6 5 Norte 17 Noroeste 0 -- -- 56
2019-05-27 12:00:00 18.9 6 Norte 19 Noroeste 0 -- -- 70
2019-05-27 11:00:00 16.7 0 Calma 7 Nordeste 0 -- -- 77
2019-05-27 10:00:00 15.9 0 Calma 3 Este 0 -- -- 79
2019-05-27 09:00:00 13 0 Calma -- -- 0 -- -- 95
2019-05-27 08:00:00 11.6 0 Calma -- -- 0 -- -- 97
2019-05-27 07:00:00 10.6 0 Calma -- -- 0 -- -- 96
2019-05-27 06:00:00 10.7 0 Calma -- -- 0 -- -- 96
2019-05-27 05:00:00 11.1 0 Calma -- -- 0 -- -- 94
2019-05-27 04:00:00 11.8 0 Calma 0 Calma 0 -- -- 92
2019-05-27 03:00:00 12.7 0 Calma 10 Norte 0 -- -- 91
2019-05-27 02:00:00 13.2 0 Calma 9 Norte 0 -- -- 90
2019-05-27 01:00:00 13.8 0 Calma 7 Oeste 0 -- -- 88
2019-05-27 00:00:00 15.1 0 Calma 19 Nordeste 0 -- -- 83
2019-05-26 23:00:00 16.5 8 Norte 28 Norte 0 -- -- 79
2019-05-26 22:00:00 19 4 Nordeste 23 Nordeste 0 -- -- 68
2019-05-26 21:00:00 22.9 4 Norte 21 Noroeste 0 -- -- 55
2019-05-26 20:00:00 25.1 7 Norte 21 Noroeste 0 -- -- 49
2019-05-26 19:00:00 27 6 Noroeste 23 Nordeste 0 -- -- 45
2019-05-26 18:00:00 27.8 5 Norte 24 Noroeste 0 -- -- 42
2019-05-26 17:00:00 27.8 5 Norte 23 Norte 0 -- -- 43
2019-05-26 16:00:00 27 6 Este 19 Sudeste 0 -- -- 38
2019-05-26 15:00:00 27 5 Nordeste 16 Norte 0 -- -- 39
2019-05-26 14:00:00 24.2 0 Calma 11 Sudoeste 0 -- -- 50
2019-05-26 13:00:00 22.3 0 Calma 8 Sudeste 0 -- -- 54
2019-05-26 12:00:00 19.9 0 Calma 7 Sur 0 -- -- 59
2019-05-26 11:00:00 17 0 Calma 5 Sudeste 0 -- -- 66
2019-05-26 10:00:00 14.5 0 Calma 8 Este 0 -- -- 74
2019-05-26 09:00:00 10.4 0 Calma 4 Sudeste 0 -- -- 95
2019-05-26 08:00:00 7.4 0 Calma -- -- 0 -- -- 95
2019-05-26 07:00:00 7.5 0 Calma -- -- 0 -- -- 94
2019-05-26 06:00:00 8.2 0 Calma -- -- 0 -- -- 93
2019-05-26 05:00:00 9 0 Calma -- -- 0 -- -- 91
2019-05-26 04:00:00 10 0 Calma 3 Oeste 0 -- -- 89
2019-05-26 03:00:00 11 0 Calma 0 Calma 0 -- -- 86
2019-05-26 02:00:00 11.9 0 Calma 4 Oeste 0 -- -- 82
2019-05-26 01:00:00 13.4 0 Calma 3 Sur 0 -- -- 78
2019-05-26 00:00:00 15.2 0 Calma 4 Oeste 0 -- -- 70
2019-05-25 23:00:00 16.5 0 Calma 22 Norte 0 -- -- 68
2019-05-25 22:00:00 18.7 4 Noroeste 19 Norte 0 -- -- 60
2019-05-25 21:00:00 22.4 6 Norte 21 Nordeste 0 -- -- 49
2019-05-25 20:00:00 23.7 6 Norte 26 Nordeste 0 -- -- 43
2019-05-25 19:00:00 24.8 8 Nordeste 23 Norte 0 -- -- 42
2019-05-25 18:00:00 24.5 8 Nordeste 24 Nordeste 0 -- -- 43
2019-05-25 17:00:00 25.6 7 Nordeste 26 Nordeste 0 -- -- 43
2019-05-25 16:00:00 24.9 8 Norte 29 Nordeste 0 -- -- 42
2019-05-25 15:00:00 23.7 7 Nordeste 25 Nordeste 0 -- -- 43
2019-05-25 14:00:00 22.7 6 Nordeste 24 Nordeste 0 -- -- 44
2019-05-25 13:00:00 21.2 5 Nordeste 19 Este 0 -- -- 45
2019-05-25 12:00:00 19.9 3 Nordeste 14 Nordeste 0 -- -- 49
2019-05-25 11:00:00 17.9 5 Este 18 Sudeste 0 -- -- 53
2019-05-25 10:00:00 15.2 2 Este 14 Este 0 -- -- 71
2019-05-25 09:00:00 9.9 0 Calma 0 Calma 0 -- -- 97
2019-05-25 08:00:00 7.5 0 Calma 0 Calma 0 -- -- 96
2019-05-25 07:00:00 7.5 0 Calma -- -- 0 -- -- 96
2019-05-25 06:00:00 8.4 0 Calma 7 Noroeste 0 -- -- 96
2019-05-25 05:00:00 8.1 0 Calma 6 Oeste 0 -- -- 95
2019-05-25 04:00:00 8.4 0 Calma 4 Nordeste 0 -- -- 93
2019-05-25 03:00:00 9 0 Calma 5 Oeste 0 -- -- 90
2019-05-25 02:00:00 9.8 0 Calma 0 Calma 0 -- -- 86
2019-05-25 01:00:00 11.1 0 Calma 5 Sudoeste 0 -- -- 80
2019-05-25 00:00:00 12.8 0 Calma 21 Nordeste 0 -- -- 73
2019-05-24 23:00:00 13.6 5 Norte 26 Nordeste 0 -- -- 68
2019-05-24 22:00:00 15.1 7 Norte 28 Norte 0 -- -- 59
2019-05-24 21:00:00 17.8 8 Norte 26 Nordeste 0 -- -- 51
2019-05-24 20:00:00 19.2 9 Nordeste 28 Nordeste 0 -- -- 48
2019-05-24 19:00:00 20.1 11 Nordeste 31 Nordeste 0 -- -- 47
2019-05-24 18:00:00 20.8 9 Nordeste 31 Este 0 -- -- 48
2019-05-24 17:00:00 20.5 7 Norte 31 Nordeste 0 -- -- 48
2019-05-24 16:00:00 21.1 10 Nordeste 33 Nordeste 0 -- -- 46
2019-05-24 15:00:00 20.6 6 Norte 25 Nordeste 0 -- -- 47
2019-05-24 14:00:00 18.7 8 Nordeste 28 Nordeste 0 -- -- 51
2019-05-24 13:00:00 18.6 6 Nordeste 29 Nordeste 0 -- -- 52
2019-05-24 12:00:00 15.5 6 Nordeste 25 Este 0 -- -- 59
2019-05-24 11:00:00 15.4 6 Nordeste 23 Nordeste 0 -- -- 60
2019-05-24 10:00:00 12.4 0 Calma 17 Nordeste 0 -- -- 76
2019-05-24 09:00:00 9.4 4 Nordeste 12 Norte 0 -- -- 96
2019-05-24 08:00:00 5.6 0 Calma -- -- 0 -- -- 96
2019-05-24 07:00:00 5.5 0 Calma -- -- 0 -- -- 95
2019-05-24 06:00:00 6.2 0 Calma -- -- 0 -- -- 94
2019-05-24 05:00:00 7 0 Calma -- -- 0 -- -- 93
2019-05-24 04:00:00 8.3 0 Calma 2 Noroeste 0 -- -- 92
2019-05-24 03:00:00 9.3 0 Calma 6 Oeste 0 -- -- 89
2019-05-24 02:00:00 10.5 0 Calma 11 Norte 0 -- -- 85
2019-05-24 01:00:00 11.4 0 Calma 19 Norte 0 -- -- 81
2019-05-24 00:00:00 12.2 8 Nordeste 18 Norte 0 -- -- 79
2019-05-23 23:00:00 13 2 Norte 16 Nordeste 0 -- -- 74
2019-05-23 22:00:00 14.5 4 Norte 17 Nordeste 0 -- -- 68
2019-05-23 21:00:00 16.5 4 Norte 28 Noroeste 0 -- -- 62
2019-05-23 20:00:00 18.6 4 Noroeste 20 Noroeste 0 -- -- 52
2019-05-23 19:00:00 21.1 8 Noroeste 26 Norte 0 -- -- 46
2019-05-23 18:00:00 22.1 4 Noroeste 22 Noroeste 0 -- -- 46
2019-05-23 17:00:00 21.9 2 Noroeste 18 Oeste 0 -- -- 48
2019-05-23 16:00:00 21 3 Oeste 17 Oeste 0 -- -- 46
2019-05-23 15:00:00 20.8 4 Noroeste 15 Oeste 0 -- -- 49
2019-05-23 14:00:00 20.1 2 Oeste 12 Oeste 0 -- -- 60
2019-05-23 13:00:00 16.9 0 Calma 4 Oeste 0 -- -- 75
2019-05-23 12:00:00 15.9 0 Calma 4 Sudeste 0 -- -- 77
2019-05-23 11:00:00 14.8 0 Calma 3 Este 0 -- -- 80
2019-05-23 10:00:00 12.5 0 Calma 0 Calma 0 -- -- 92
2019-05-23 09:00:00 10.7 0 Calma 0 Calma 0 -- -- 97
2019-05-23 08:00:00 9 0 Calma 0 Calma 0 -- -- 96
2019-05-23 07:00:00 8.9 0 Calma -- -- 0 -- -- 95
2019-05-23 06:00:00 9.1 0 Calma -- -- 0 -- -- 95
2019-05-23 05:00:00 9.1 0 Calma -- -- 0 -- -- 94
2019-05-23 04:00:00 9.6 0 Calma -- -- 0 -- -- 92
2019-05-23 03:00:00 10.1 0 Calma -- -- 0 -- -- 90
2019-05-23 02:00:00 11 0 Calma -- -- 0 -- -- 87
2019-05-23 01:00:00 12.3 0 Calma -- -- 0 -- -- 82
2019-05-23 00:00:00 14.3 0 Calma 2 Noroeste 0 -- -- 74
2019-05-22 23:00:00 16.3 0 Calma 5 Oeste 0 -- -- 65
2019-05-22 22:00:00 19.1 0 Calma 15 Noroeste 0 -- -- 53
2019-05-22 21:00:00 21.7 6 Oeste 23 Noroeste 0 -- -- 47
2019-05-22 20:00:00 23 10 Oeste 23 Noroeste 0 -- -- 48
2019-05-22 19:00:00 24.5 8 Oeste 26 Oeste 0 -- -- 45
2019-05-22 18:00:00 25.9 6 Oeste 21 Oeste 0 -- -- 42
2019-05-22 17:00:00 26.5 6 Oeste 25 Noroeste 0 -- -- 39
2019-05-22 16:00:00 25.9 3 Oeste 17 Oeste 0 -- -- 41
2019-05-22 15:00:00 25.8 2 Sur 13 Sudeste 0 -- -- 45
2019-05-22 14:00:00 24 0 Calma 10 Este 0 -- -- 49
2019-05-22 13:00:00 21.9 0 Calma 8 Sudoeste 0 -- -- 50
2019-05-22 12:00:00 20.4 0 Calma 6 Sudeste 0 -- -- 59
2019-05-22 11:00:00 17.1 0 Calma 5 Sudoeste 0 -- -- 70
2019-05-22 10:00:00 14.6 0 Calma -- -- 0 -- -- 81
2019-05-22 09:00:00 9.1 0 Calma 0 Calma 0 -- -- 95
2019-05-22 08:00:00 7.5 0 Calma -- -- 0 -- -- 94
2019-05-22 07:00:00 7.7 0 Calma 5 Nordeste 0 -- -- 93
2019-05-22 06:00:00 8.2 0 Calma 0 Calma 0 -- -- 93
2019-05-22 05:00:00 9 0 Calma 4 Nordeste 0 -- -- 91
2019-05-22 04:00:00 10 0 Calma 2 Norte 0 -- -- 91
2019-05-22 03:00:00 10.9 0 Calma 2 Este 0 -- -- 90
2019-05-22 02:00:00 11.9 0 Calma 0 Calma 0 -- -- 87
2019-05-22 01:00:00 13.7 0 Calma -- -- 0 -- -- 82
2019-05-22 00:00:00 15.2 0 Calma 3 Oeste 0 -- -- 78
2019-05-21 23:00:00 17 0 Calma 7 Oeste 0 -- -- 69
2019-05-21 22:00:00 19.5 2 Oeste 18 Noroeste 0 -- -- 59
2019-05-21 21:00:00 22.6 10 Noroeste 22 Oeste 0 -- -- 46
2019-05-21 20:00:00 24.6 2 Oeste 14 Norte 0 -- -- 42
2019-05-21 19:00:00 23.5 0 Calma 7 Nordeste 0 -- -- 45
2019-05-21 18:00:00 24.5 0 Calma 14 Noroeste 0 -- -- 39
2019-05-21 17:00:00 25.3 0 Calma 10 Oeste 0 -- -- 39
2019-05-21 16:00:00 23.5 0 Calma 11 Nordeste 0 -- -- 42
2019-05-21 15:00:00 23.9 2 Noroeste 12 Nordeste 0 -- -- 41
2019-05-21 14:00:00 22.9 0 Calma 13 Este 0 -- -- 45
2019-05-21 13:00:00 20.4 0 Calma 9 Este 0 -- -- 49
2019-05-21 12:00:00 19.3 0 Calma 5 Nordeste 0 -- -- 53
2019-05-21 11:00:00 16.5 0 Calma 4 Sudoeste 0 -- -- 64
2019-05-21 10:00:00 13.4 0 Calma 3 Sur 0 -- -- 81
2019-05-21 09:00:00 10 0 Calma -- -- 0 -- -- 94
2019-05-21 08:00:00 8.9 0 Calma -- -- 0 -- -- 93
2019-05-21 07:00:00 8.8 0 Calma -- -- 0 -- -- 93
2019-05-21 06:00:00 8.9 0 Calma 2 Norte 0 -- -- 93
2019-05-21 05:00:00 9.2 0 Calma -- -- 0 -- -- 93
2019-05-21 04:00:00 9.3 0 Calma -- -- 0 -- -- 92
2019-05-21 03:00:00 10 0 Calma -- -- 0 -- -- 89
2019-05-21 02:00:00 10.8 0 Calma -- -- 0 -- -- 86
2019-05-21 01:00:00 11.6 0 Calma -- -- 0 -- -- 82
2019-05-21 00:00:00 12.3 0 Calma -- -- 0 -- -- 75
2019-05-20 23:00:00 13.5 0 Calma 8 Noroeste 0 -- -- 70
2019-05-20 22:00:00 15 0 Calma 0 Calma 0 -- -- 68
2019-05-20 21:00:00 17 0 Calma 11 Noroeste 0 -- -- 59
2019-05-20 20:00:00 17.1 0 Calma 7 Oeste 0 -- -- 62
2019-05-20 19:00:00 16.3 0 Calma 6 Sur 0 -- -- 63
2019-05-20 18:00:00 16.8 0 Calma 8 Oeste 0 -- -- 62
2019-05-20 17:00:00 17.5 0 Calma 10 Oeste 0 -- -- 58
2019-05-20 16:00:00 17.2 0 Calma 8 Oeste 0 -- -- 55
2019-05-20 15:00:00 17.2 0 Calma 10 Oeste 0 -- -- 51
2019-05-20 14:00:00 15.6 0 Calma 6 Noroeste 0 -- -- 58
2019-05-20 13:00:00 13.9 0 Calma 4 Sudeste 0 -- -- 70
2019-05-20 12:00:00 11.7 0 Calma 4 Sudeste 0 -- -- 78
2019-05-20 11:00:00 10.3 0 Calma 3 Oeste 0 -- -- 84
2019-05-20 10:00:00 9.3 0 Calma 2 Este 0 -- -- 89
2019-05-20 09:00:00 6.1 0 Calma 6 Nordeste 0 -- -- 96
2019-05-20 08:00:00 4.1 0 Calma 5 Nordeste 0 -- -- 95
2019-05-20 07:00:00 4.4 0 Calma -- -- 0 -- -- 93
2019-05-20 06:00:00 5.4 0 Calma -- -- 0 -- -- 93
2019-05-20 05:00:00 6.3 0 Calma 7 Nordeste 0 -- -- 92
2019-05-20 04:00:00 6.6 0 Calma 5 Nordeste 0 -- -- 92
2019-05-20 03:00:00 7.1 0 Calma -- -- 0 -- -- 90
2019-05-20 02:00:00 7.7 0 Calma 2 Nordeste 0 -- -- 86
2019-05-20 01:00:00 9.3 0 Calma 9 Este 0 -- -- 82
2019-05-20 00:00:00 11 3 Nordeste 14 Nordeste 0 -- -- 76
2019-05-19 23:00:00 11.6 0 Calma 15 Norte 0 -- -- 70
2019-05-19 22:00:00 13.5 2 Norte 13 Norte 0 -- -- 59
2019-05-19 21:00:00 16.3 4 Norte 19 Norte 0 -- -- 49
2019-05-19 20:00:00 17.9 3 Norte 19 Norte 0 -- -- 42
2019-05-19 19:00:00 17 4 Nordeste 21 Oeste 0 -- -- 40
2019-05-19 18:00:00 18.7 3 Norte 22 Norte 0 -- -- 39
2019-05-19 17:00:00 18.7 5 Nordeste 19 Norte 0 -- -- 39
2019-05-19 16:00:00 18.8 3 Norte 17 Nordeste 0 -- -- 40
2019-05-19 15:00:00 17 3 Norte 15 Norte 0 -- -- 41
2019-05-19 14:00:00 16.6 4 Noroeste 17 Norte 0 -- -- 45
2019-05-19 13:00:00 15.5 0 Calma 12 Nordeste 0 -- -- 49
2019-05-19 12:00:00 13.4 0 Calma 16 Este 0 -- -- 57
2019-05-19 11:00:00 11.7 0 Calma 11 Este 0 -- -- 65
2019-05-19 10:00:00 8.7 0 Calma 7 Noroeste 0 -- -- 91
2019-05-19 09:00:00 4.1 0 Calma -- -- 0 -- -- 99
2019-05-19 08:00:00 2.3 0 Calma -- -- 0 -- -- 97
2019-05-19 07:00:00 2.3 0 Calma -- -- 0 -- -- 96
2019-05-19 06:00:00 2.8 0 Calma -- -- 0 -- -- 95
2019-05-19 05:00:00 3.3 0 Calma -- -- 0 -- -- 93
2019-05-19 04:00:00 4.2 0 Calma -- -- 0 -- -- 93
2019-05-19 03:00:00 5.2 0 Calma -- -- 0 -- -- 93
2019-05-19 02:00:00 5.7 0 Calma -- -- 0 -- -- 91
2019-05-19 01:00:00 6.4 0 Calma -- -- 0 -- -- 87
2019-05-19 00:00:00 7.5 0 Calma -- -- 0 -- -- 82
2019-05-18 23:00:00 9.5 0 Calma 5 Oeste 0 -- -- 74
2019-05-18 22:00:00 11.6 0 Calma 19 Oeste 0 -- -- 63
2019-05-18 21:00:00 14.4 6 Oeste 21 Oeste 0 -- -- 56
2019-05-18 20:00:00 15.1 11 Oeste 23 Noroeste 0 -- -- 54
2019-05-18 19:00:00 15.7 12 Noroeste 28 Oeste 0 -- -- 55
2019-05-18 18:00:00 15.2 2 Oeste 21 Noroeste 0 -- -- 58
2019-05-18 17:00:00 13.8 3 Oeste 16 Oeste 0 -- -- 62
2019-05-18 16:00:00 15 4 Noroeste 22 Norte 0 -- -- 64
2019-05-18 15:00:00 12.7 7 Noroeste 25 Norte 0 -- -- 72
2019-05-18 14:00:00 12.7 0 Calma 21 Noroeste 0.3 -- -- 75
2019-05-18 13:00:00 13.2 4 Oeste 19 Noroeste 0.1 -- -- 56
2019-05-18 12:00:00 12.5 6 Oeste 17 Noroeste 0 -- -- 63
2019-05-18 11:00:00 10.7 0 Calma 10 Oeste 0 -- -- 83
2019-05-18 10:00:00 7.8 0 Calma 3 Sur 0 -- -- 99
2019-05-18 09:00:00 6 0 Calma -- -- 0.1 -- -- 99
2019-05-18 08:00:00 4.1 0 Calma -- -- 0 -- -- 98
2019-05-18 07:00:00 3.4 0 Calma -- -- 0 -- -- 96
2019-05-18 06:00:00 4 0 Calma -- -- 0 -- -- 96
2019-05-18 05:00:00 4.3 0 Calma -- -- 0 -- -- 95
2019-05-18 04:00:00 5.4 0 Calma -- -- 0 -- -- 95
2019-05-18 03:00:00 6.2 0 Calma 4 Oeste 0 -- -- 93
2019-05-18 02:00:00 6.7 0 Calma 4 Oeste 0 -- -- 91
2019-05-18 01:00:00 7.3 0 Calma 5 Noroeste 0 -- -- 88
2019-05-18 00:00:00 8.1 0 Calma 7 Este 0 -- -- 82
2019-05-17 23:00:00 9.5 0 Calma 7 Noroeste 0 -- -- 76
2019-05-17 22:00:00 10.8 0 Calma 20 Nordeste 0 -- -- 64
2019-05-17 21:00:00 12.6 5 Norte 23 Norte 0 -- -- 60
2019-05-17 20:00:00 15 6 Noroeste 27 Noroeste 0 -- -- 53
2019-05-17 19:00:00 14.5 8 Noroeste 24 Noroeste 0 -- -- 56
2019-05-17 18:00:00 16.2 7 Norte 44 Oeste 0 -- -- 55
2019-05-17 17:00:00 14.5 14 Oeste 30 Noroeste 0 -- -- 58
2019-05-17 16:00:00 13.7 6 Norte 30 Noroeste 0 -- -- 64
2019-05-17 15:00:00 13.7 15 Oeste 40 Noroeste 0 -- -- 58
2019-05-17 14:00:00 14.8 9 Noroeste 31 Oeste 0 -- -- 60
2019-05-17 13:00:00 14.1 13 Noroeste 30 Oeste 0 -- -- 60
2019-05-17 12:00:00 12.3 13 Oeste 32 Oeste 0 -- -- 68
2019-05-17 11:00:00 13.4 6 Noroeste 28 Oeste 0 -- -- 63
2019-05-17 10:00:00 11.7 10 Noroeste 23 Noroeste 0 -- -- 72
2019-05-17 09:00:00 9.7 0 Calma 17 Oeste 0 -- -- 84
2019-05-17 08:00:00 9.7 6 Oeste 17 Oeste 0 -- -- 86
2019-05-17 07:00:00 9.6 4 Noroeste 24 Oeste 0 -- -- 86
2019-05-17 06:00:00 9.6 9 Noroeste 24 Noroeste 0 -- -- 87
2019-05-17 05:00:00 9.4 6 Oeste 17 Oeste 0 -- -- 91
2019-05-17 04:00:00 9.7 8 Oeste 23 Noroeste 0 -- -- 86
2019-05-17 03:00:00 10.2 10 Noroeste 24 Oeste 0 -- -- 84
2019-05-17 02:00:00 9.9 8 Oeste 19 Noroeste 0 -- -- 85
2019-05-17 01:00:00 10.2 9 Noroeste 23 Oeste 0 -- -- 85
2019-05-17 00:00:00 10.3 7 Oeste 20 Oeste 0.1 -- -- 86